Hlavní strana
METAR-TAF:

METAR-TAF

Letiště :

Frontone, Itálie

zeměpisná šířka: 43-31N, zeměpisná délka: 012-44E, výška: 570 m

Aktuální stav počasí

Zpráva byla vytvořena před 25 minutami, v 06:55 UTC
Západoseverozápadní vítr 7 kt
Teplota 0°C
Vlhkost vzduchu 86%
Tlak 1013 hPa
Viditelnost 10 km a více
Polojasno ve výšce 1800 ft
Oblačno až skoro zataženo ve výšce 2400 ft

METAR: LIVF 150655Z 29007KT 9999 SCT018 BKN024 M00/M02 Q1013 RMK OVC MON S W CIME INC NC VAL NIL VIS MIN 9999

Čas: 08:20 (07:20 UTC)


TAF: chybějící

Stav a předpovědi počasí z více než 4 000 letišť (zprávy METAR a TAF).

Červené a žluté tečky na mapě představují dostupné meteorologické stanice.

Když kurzor umístíte na tečku, zobrazí se název stanice.

Pak kliknutím zobrazíte stav a předpověď počasí.

Chcete-li změnit mapu, kliknutím na zelené tlačítko se znaménkem +mapu přiblížíte, kliknutím na zelené tlačítko se znaménkem – mapu oddálíte a kliknutím na zelené šipky přejdete na sousední mapy.


METAR-TAF: